createdAt,value
2023-02-15T00:02:06.147Z,23.83
2023-02-15T00:07:17.983Z,22.63
2023-02-15T00:12:26.827Z,24.17
2023-02-15T00:17:42.635Z,22.53
2023-02-15T00:22:47.529Z,24.10
2023-02-15T00:27:54.964Z,24.27
2023-02-15T00:32:59.158Z,23.63
2023-02-15T00:38:08.222Z,24.30
2023-02-15T00:43:14.195Z,24.37
2023-02-15T00:48:23.752Z,23.47
2023-02-15T00:53:30.019Z,25.17
2023-02-15T00:58:37.143Z,24.07
2023-02-15T01:03:43.717Z,24.17
2023-02-15T01:08:50.480Z,25.30
2023-02-15T01:13:56.572Z,26.07
2023-02-15T01:19:08.502Z,24.07
2023-02-15T01:24:17.706Z,23.83
2023-02-15T01:29:24.793Z,24.03
2023-02-15T01:34:35.876Z,25.07
2023-02-15T01:39:41.467Z,24.27
2023-02-15T01:44:51.050Z,23.37
2023-02-15T01:50:10.584Z,26.93
2023-02-15T01:55:16.135Z,23.20
2023-02-15T02:00:26.855Z,24.60
2023-02-15T02:05:33.562Z,25.50
2023-02-15T02:10:38.947Z,24.83
2023-02-15T02:15:49.561Z,23.97
2023-02-15T02:21:11.170Z,23.40
2023-02-15T02:26:41.457Z,22.97
2023-02-15T02:31:56.580Z,23.80
2023-02-15T02:37:08.977Z,23.10
2023-02-15T02:42:19.681Z,22.20
2023-02-15T02:47:28.544Z,21.63
2023-02-15T02:52:42.488Z,22.83
2023-02-15T02:57:54.002Z,19.97
2023-02-15T03:03:00.557Z,21.70
2023-02-15T03:08:10.748Z,21.47
2023-02-15T03:13:13.566Z,19.50
2023-02-15T03:18:18.745Z,20.10
2023-02-15T03:23:25.933Z,21.17
2023-02-15T03:28:35.116Z,18.77
2023-02-15T03:33:42.830Z,18.60
2023-02-15T03:38:51.951Z,18.97
2023-02-15T03:43:57.221Z,19.47
2023-02-15T03:49:09.955Z,18.97
2023-02-15T03:54:36.765Z,17.57
2023-02-15T03:59:57.213Z,17.83
2023-02-15T04:04:59.896Z,17.77
2023-02-15T04:10:21.840Z,17.70
2023-02-15T04:15:42.283Z,17.10
2023-02-15T04:21:03.453Z,17.60
2023-02-15T04:26:08.077Z,21.50
2023-02-15T04:31:10.943Z,19.57
2023-02-15T04:36:13.666Z,17.17
2023-02-15T04:41:17.690Z,22.53
2023-02-15T04:46:20.443Z,21.30
2023-02-15T04:51:23.199Z,19.13
2023-02-15T04:56:27.369Z,17.10
2023-02-15T05:01:30.061Z,16.53
2023-02-15T05:06:32.727Z,17.10
2023-02-15T05:11:36.732Z,17.67
2023-02-15T05:16:39.665Z,17.47
2023-02-15T05:21:42.369Z,16.80
2023-02-15T05:27:03.947Z,16.80
2023-02-15T05:32:06.908Z,17.47
2023-02-15T05:37:09.723Z,16.43
2023-02-15T05:42:13.735Z,16.70
2023-02-15T05:47:16.383Z,15.93
2023-02-15T05:52:19.208Z,15.10
2023-02-15T05:57:23.194Z,13.93
2023-02-15T06:02:25.857Z,14.13
2023-02-15T06:07:28.589Z,13.40
2023-02-15T06:12:32.649Z,15.30
2023-02-15T06:17:35.390Z,14.30
2023-02-15T06:22:38.375Z,14.23
2023-02-15T06:27:44.735Z,14.97
2023-02-15T06:32:47.389Z,13.67
2023-02-15T06:37:53.238Z,13.33
2023-02-15T06:42:57.233Z,12.93
2023-02-15T06:48:00.205Z,12.97
2023-02-15T06:53:02.989Z,11.80
2023-02-15T06:58:07.013Z,11.87
2023-02-15T07:03:09.926Z,10.67
2023-02-15T07:08:12.579Z,12.10
2023-02-15T07:13:16.557Z,11.67
2023-02-15T07:18:19.175Z,11.27
2023-02-15T07:23:21.849Z,11.17
2023-02-15T07:28:25.971Z,10.87
2023-02-15T07:33:29.852Z,9.17
2023-02-15T07:38:34.585Z,9.83
2023-02-15T07:43:40.380Z,8.57
2023-02-15T07:48:43.937Z,8.47
2023-02-15T07:53:47.945Z,7.33
2023-02-15T07:58:56.562Z,7.57
2023-02-15T08:03:59.821Z,7.63
2023-02-15T08:09:03.149Z,7.63
2023-02-15T08:14:09.596Z,7.37
2023-02-15T08:19:15.047Z,7.43
2023-02-15T08:24:21.692Z,7.23
2023-02-15T08:29:29.621Z,6.50
2023-02-15T08:34:35.955Z,7.20
2023-02-15T08:39:41.209Z,7.63
2023-02-15T08:44:48.533Z,6.97
2023-02-15T08:49:54.401Z,6.83
2023-02-15T08:54:58.718Z,7.53
2023-02-15T09:00:08.165Z,7.70
2023-02-15T09:05:12.120Z,7.00
2023-02-15T09:10:16.414Z,7.40
2023-02-15T09:15:25.939Z,7.38
2023-02-15T09:20:31.079Z,7.95
2023-02-15T09:25:36.331Z,8.75
2023-02-15T09:30:42.302Z,7.95
2023-02-15T09:35:47.163Z,8.38
2023-02-15T09:41:03.948Z,9.65
2023-02-15T09:46:34.769Z,8.10
2023-02-15T09:51:50.417Z,9.70
2023-02-15T09:57:01.004Z,9.43
2023-02-15T10:02:20.385Z,9.85
2023-02-15T10:07:42.949Z,11.45
2023-02-15T10:13:00.443Z,10.77
2023-02-15T10:18:22.863Z,11.63
2023-02-15T10:23:56.098Z,11.65
2023-02-15T10:29:04.733Z,11.93
2023-02-15T10:34:19.296Z,12.25
2023-02-15T10:39:32.451Z,11.70
2023-02-15T10:44:49.127Z,10.40
2023-02-15T10:50:08.499Z,11.48
2023-02-15T10:55:20.432Z,9.98
2023-02-15T11:00:32.035Z,9.80
2023-02-15T11:05:44.425Z,10.35
2023-02-15T11:10:52.482Z,9.95
2023-02-15T11:15:58.870Z,11.52
2023-02-15T11:21:05.813Z,9.80
2023-02-15T11:26:14.910Z,8.90
2023-02-15T11:31:21.028Z,9.65
2023-02-15T11:36:28.331Z,10.15
2023-02-15T11:41:38.183Z,9.27
2023-02-15T11:46:41.102Z,10.27
2023-02-15T11:51:45.838Z,10.15
2023-02-15T11:56:49.123Z,10.50
2023-02-15T12:01:52.993Z,10.15
2023-02-15T12:07:02.983Z,10.13
2023-02-15T12:12:27.997Z,10.65
2023-02-15T12:17:34.288Z,9.80
2023-02-15T12:22:48.036Z,10.32
2023-02-15T12:27:52.340Z,10.05
2023-02-15T12:33:00.828Z,10.02
2023-02-15T12:38:21.947Z,9.80
2023-02-15T12:43:29.608Z,10.13
2023-02-15T12:48:40.671Z,10.15
2023-02-15T12:53:45.938Z,10.02
2023-02-15T12:58:50.246Z,9.30
2023-02-15T13:04:00.143Z,9.80
2023-02-15T13:09:18.278Z,9.95
2023-02-15T13:14:24.150Z,10.60
2023-02-15T13:19:36.633Z,10.82
2023-02-15T13:24:48.198Z,11.40
2023-02-15T13:30:00.387Z,11.18
2023-02-15T13:35:06.672Z,12.48
2023-02-15T13:40:18.351Z,11.15
2023-02-15T13:45:39.139Z,11.50
2023-02-15T13:50:58.894Z,10.52
2023-02-15T13:56:10.407Z,11.13
2023-02-15T14:01:21.222Z,11.70
2023-02-15T14:06:48.496Z,12.40
2023-02-15T14:12:07.338Z,11.50
2023-02-15T14:17:22.650Z,14.02
2023-02-15T14:22:34.645Z,12.20
2023-02-15T14:27:53.322Z,13.33
2023-02-15T14:33:02.041Z,12.83
2023-02-15T14:38:15.489Z,14.40
2023-02-15T14:43:32.404Z,14.00
2023-02-15T14:48:43.674Z,14.93
2023-02-15T14:54:15.768Z,15.33
2023-02-15T14:59:31.142Z,15.30
2023-02-15T15:04:41.918Z,16.97
2023-02-15T15:15:58.955Z,17.00
2023-02-15T15:21:24.209Z,17.43
2023-02-15T15:26:36.982Z,16.03
2023-02-15T15:32:02.034Z,16.73
2023-02-15T15:37:55.851Z,16.13
2023-02-15T15:43:34.731Z,16.80
2023-02-15T15:48:40.026Z,16.03
2023-02-15T15:53:46.877Z,16.30
2023-02-15T15:58:54.237Z,17.27
2023-02-15T16:04:00.363Z,16.13
2023-02-15T16:09:19.853Z,16.83
2023-02-15T16:14:29.289Z,16.77
2023-02-15T16:19:36.704Z,16.10
2023-02-15T16:24:54.229Z,16.80
2023-02-15T16:29:56.973Z,16.60
2023-02-15T16:35:02.898Z,18.27
2023-02-15T16:40:06.543Z,16.60
2023-02-15T16:45:15.762Z,17.90
2023-02-15T16:50:22.414Z,17.37
2023-02-15T16:55:27.456Z,17.23
2023-02-15T17:00:34.039Z,16.97
2023-02-15T17:05:44.244Z,19.50
2023-02-15T17:17:15.000Z,18.27
2023-02-15T17:22:29.186Z,18.27
2023-02-15T17:27:35.990Z,18.30
2023-02-15T17:32:58.819Z,19.93
2023-02-15T17:38:41.460Z,19.23
2023-02-15T17:43:48.639Z,20.00
2023-02-15T17:48:53.434Z,20.10
2023-02-15T17:54:15.075Z,19.60
2023-02-15T17:59:17.708Z,18.23
2023-02-15T18:04:38.594Z,18.67
2023-02-15T18:10:00.265Z,19.73
2023-02-15T18:15:03.593Z,19.53
2023-02-15T18:20:17.922Z,18.57
2023-02-15T18:25:24.199Z,20.50
2023-02-15T18:30:28.264Z,18.63
2023-02-15T18:35:33.470Z,20.17
2023-02-15T18:40:37.463Z,19.73
2023-02-15T18:45:41.478Z,19.23
2023-02-15T18:50:44.239Z,20.43
2023-02-15T18:55:49.654Z,20.40
2023-02-15T20:17:09.136Z,20.80
2023-02-15T20:22:34.912Z,20.57
2023-02-15T20:27:38.063Z,20.07
2023-02-15T20:32:47.452Z,19.47
2023-02-15T20:38:04.452Z,19.77
2023-02-15T20:43:27.441Z,18.03
2023-02-15T20:48:36.834Z,20.57
2023-02-15T20:53:39.795Z,20.50
2023-02-15T20:59:11.909Z,21.47
2023-02-15T21:04:18.943Z,18.30
2023-02-15T21:09:21.668Z,18.67
2023-02-15T21:14:30.024Z,20.40
2023-02-15T21:19:34.066Z,18.03
2023-02-15T21:24:40.044Z,18.40
2023-02-15T21:29:42.829Z,21.00
2023-02-15T21:34:47.754Z,20.03
2023-02-15T21:39:50.428Z,19.37
2023-02-15T21:45:10.664Z,20.03
2023-02-15T21:50:34.339Z,18.87
2023-02-15T21:55:37.066Z,18.53
2023-02-15T22:00:39.761Z,18.17
2023-02-15T22:05:43.774Z,19.57
2023-02-15T22:10:47.976Z,18.23
2023-02-15T22:15:50.645Z,19.97
2023-02-15T22:21:03.891Z,19.67
2023-02-15T22:26:24.063Z,17.70
2023-02-15T22:31:40.035Z,19.40
2023-02-15T22:36:58.578Z,18.73
2023-02-15T22:42:05.396Z,18.83
2023-02-15T22:47:32.231Z,19.17
2023-02-15T22:53:04.296Z,18.57
2023-02-15T22:58:25.244Z,19.07
2023-02-15T23:03:50.782Z,18.77
2023-02-15T23:09:02.976Z,18.30
2023-02-15T23:14:33.735Z,18.33
2023-02-15T23:19:39.020Z,19.47
2023-02-15T23:24:47.911Z,18.53
2023-02-15T23:29:57.115Z,18.77
2023-02-15T23:35:07.587Z,18.67
2023-02-15T23:40:33.477Z,19.80
2023-02-15T23:45:40.131Z,17.73
2023-02-15T23:50:43.705Z,20.20
2023-02-15T23:55:47.936Z,17.80
